N44CK KSAN-KAPC
Flight info
| Callsign | N44CK |
|---|---|
| Flight time | N/A |
| Altitude | 34000 |
| Route | PADRZ2 OROSZ COREZ RGOOD VNYRD1 |
| Aircraft | C525/L-SDFGRWY/S |
Departure
| Time | N/A |
|---|---|
| Airport | San Diego International Airport (KSAN) |
Arrival
| Time | 2026-05-07 01:28 |
|---|---|
| Airport | Napa County Airport (KAPC) |
| Time | Latitude | Longitude | Altitude | Speed | Heading |
|---|---|---|---|---|---|
| 2026-05-07 00:53 | 36.32355 | -120.07050 | 34041 ft | 365 kts | 321° |
| 2026-05-07 00:54 | 36.36127 | -120.11381 | 34040 ft | 365 kts | 321° |
| 2026-05-07 00:54 | 36.39841 | -120.15667 | 34038 ft | 366 kts | 321° |
| 2026-05-07 00:55 | 36.43550 | -120.19952 | 34038 ft | 366 kts | 321° |
| 2026-05-07 00:55 | 36.47286 | -120.24274 | 34039 ft | 365 kts | 321° |
| 2026-05-07 00:56 | 36.50982 | -120.28558 | 34042 ft | 365 kts | 321° |
| 2026-05-07 00:56 | 36.54713 | -120.32886 | 34041 ft | 365 kts | 321° |
| 2026-05-07 00:57 | 36.58408 | -120.37179 | 34044 ft | 365 kts | 321° |
| 2026-05-07 00:57 | 36.62107 | -120.41481 | 34045 ft | 364 kts | 320° |
| 2026-05-07 00:58 | 36.65819 | -120.45805 | 34044 ft | 364 kts | 320° |
| 2026-05-07 00:58 | 36.69509 | -120.50110 | 34040 ft | 364 kts | 320° |
| 2026-05-07 00:59 | 36.75072 | -120.56610 | 34042 ft | 364 kts | 320° |
| 2026-05-07 01:00 | 36.78820 | -120.60998 | 34041 ft | 363 kts | 320° |
| 2026-05-07 01:00 | 36.82510 | -120.65323 | 34044 ft | 363 kts | 320° |
| 2026-05-07 01:01 | 36.86209 | -120.69665 | 34042 ft | 362 kts | 320° |
| 2026-05-07 01:01 | 36.89922 | -120.74030 | 34041 ft | 362 kts | 319° |
| 2026-05-07 01:02 | 36.93585 | -120.78341 | 34040 ft | 362 kts | 319° |
| 2026-05-07 01:02 | 36.97286 | -120.82704 | 33837 ft | 362 kts | 319° |
| 2026-05-07 01:02 | 36.99094 | -120.84838 | 33577 ft | 358 kts | 319° |
| 2026-05-07 01:03 | 37.00852 | -120.87067 | 33309 ft | 357 kts | 313° |
| 2026-05-07 01:03 | 37.02269 | -120.89576 | 33061 ft | 356 kts | 306° |
| 2026-05-07 01:03 | 37.03585 | -120.92211 | 32804 ft | 354 kts | 304° |
| 2026-05-07 01:03 | 37.04848 | -120.94821 | 32548 ft | 352 kts | 304° |
| 2026-05-07 01:04 | 37.06119 | -120.97465 | 32289 ft | 350 kts | 304° |
| 2026-05-07 01:04 | 37.07357 | -121.00043 | 32036 ft | 348 kts | 304° |
| 2026-05-07 01:04 | 37.08597 | -121.02625 | 31784 ft | 346 kts | 304° |
| 2026-05-07 01:04 | 37.09836 | -121.05203 | 31528 ft | 345 kts | 304° |
| 2026-05-07 01:05 | 37.11062 | -121.07756 | 31275 ft | 344 kts | 304° |
| 2026-05-07 01:05 | 37.12303 | -121.10339 | 31020 ft | 343 kts | 304° |
| 2026-05-07 01:05 | 37.13540 | -121.12916 | 30764 ft | 342 kts | 304° |
| 2026-05-07 01:05 | 37.14760 | -121.15459 | 30510 ft | 341 kts | 304° |
| 2026-05-07 01:06 | 37.15980 | -121.18003 | 30256 ft | 340 kts | 304° |
| 2026-05-07 01:06 | 37.17189 | -121.20525 | 30003 ft | 340 kts | 304° |
| 2026-05-07 01:06 | 37.18402 | -121.23059 | 29747 ft | 339 kts | 304° |
| 2026-05-07 01:06 | 37.19625 | -121.25613 | 29485 ft | 339 kts | 304° |
| 2026-05-07 01:07 | 37.20822 | -121.28116 | 29227 ft | 338 kts | 304° |
| 2026-05-07 01:07 | 37.22043 | -121.30669 | 28958 ft | 338 kts | 304° |
| 2026-05-07 01:07 | 37.23252 | -121.33202 | 28647 ft | 338 kts | 304° |
| 2026-05-07 01:07 | 37.24457 | -121.35726 | 28119 ft | 340 kts | 304° |
| 2026-05-07 01:08 | 37.25664 | -121.38257 | 27607 ft | 339 kts | 304° |
| 2026-05-07 01:08 | 37.26876 | -121.40801 | 27098 ft | 338 kts | 304° |
| 2026-05-07 01:08 | 37.28077 | -121.43323 | 26589 ft | 336 kts | 304° |
| 2026-05-07 01:08 | 37.29267 | -121.45826 | 26083 ft | 334 kts | 304° |
| 2026-05-07 01:09 | 37.30449 | -121.48314 | 25573 ft | 330 kts | 304° |
| 2026-05-07 01:09 | 37.31630 | -121.50800 | 25059 ft | 327 kts | 304° |
| 2026-05-07 01:09 | 37.32790 | -121.53245 | 24549 ft | 323 kts | 304° |
| 2026-05-07 01:09 | 37.33924 | -121.55635 | 24046 ft | 320 kts | 304° |
| 2026-05-07 01:10 | 37.35071 | -121.58055 | 23531 ft | 317 kts | 304° |
| 2026-05-07 01:10 | 37.36185 | -121.60407 | 22974 ft | 316 kts | 304° |
| 2026-05-07 01:10 | 37.37312 | -121.62788 | 22334 ft | 314 kts | 304° |
| 2026-05-07 01:10 | 37.38438 | -121.65167 | 21699 ft | 312 kts | 303° |
| 2026-05-07 01:11 | 37.39534 | -121.67487 | 21074 ft | 311 kts | 303° |
| 2026-05-07 01:11 | 37.40631 | -121.69808 | 20444 ft | 309 kts | 303° |
| 2026-05-07 01:11 | 37.41717 | -121.72111 | 20154 ft | 302 kts | 303° |
| 2026-05-07 01:11 | 37.42781 | -121.74368 | 20106 ft | 296 kts | 303° |
| 2026-05-07 01:12 | 37.43802 | -121.76536 | 20101 ft | 291 kts | 303° |
| 2026-05-07 01:12 | 37.44846 | -121.78754 | 20102 ft | 287 kts | 304° |
| 2026-05-07 01:12 | 37.45854 | -121.80894 | 20103 ft | 284 kts | 304° |
| 2026-05-07 01:12 | 37.46869 | -121.83052 | 20105 ft | 281 kts | 303° |
| 2026-05-07 01:13 | 37.47863 | -121.85166 | 20105 ft | 278 kts | 303° |
| 2026-05-07 01:13 | 37.48853 | -121.87270 | 20102 ft | 277 kts | 303° |
| 2026-05-07 01:13 | 37.49906 | -121.89339 | 19893 ft | 281 kts | 310° |
| 2026-05-07 01:13 | 37.51174 | -121.91291 | 19238 ft | 295 kts | 313° |
| 2026-05-07 01:14 | 37.52528 | -121.93255 | 18506 ft | 298 kts | 314° |
| 2026-05-07 01:14 | 37.53888 | -121.95206 | 17773 ft | 298 kts | 314° |
| 2026-05-07 01:14 | 37.55252 | -121.97163 | 17037 ft | 297 kts | 314° |
| 2026-05-07 01:14 | 37.56617 | -121.99129 | 16298 ft | 297 kts | 314° |
| 2026-05-07 01:15 | 37.57961 | -122.01068 | 15572 ft | 296 kts | 314° |
| 2026-05-07 01:15 | 37.59316 | -122.03029 | 14841 ft | 295 kts | 313° |
| 2026-05-07 01:15 | 37.60640 | -122.04948 | 14124 ft | 294 kts | 313° |
| 2026-05-07 01:15 | 37.61988 | -122.06904 | 13387 ft | 293 kts | 313° |
| 2026-05-07 01:16 | 37.63304 | -122.08817 | 12687 ft | 291 kts | 313° |
| 2026-05-07 01:16 | 37.64623 | -122.10736 | 11973 ft | 289 kts | 313° |
| 2026-05-07 01:16 | 37.65928 | -122.12635 | 11261 ft | 287 kts | 313° |
| 2026-05-07 01:16 | 37.67237 | -122.14544 | 10533 ft | 284 kts | 313° |
| 2026-05-07 01:17 | 37.68501 | -122.16389 | 10077 ft | 271 kts | 313° |
| 2026-05-07 01:17 | 37.69683 | -122.18117 | 9983 ft | 248 kts | 313° |
| 2026-05-07 01:17 | 37.70767 | -122.19705 | 9965 ft | 229 kts | 313° |
| 2026-05-07 01:17 | 37.71806 | -122.21223 | 9991 ft | 230 kts | 313° |
| 2026-05-07 01:18 | 37.72916 | -122.22739 | 9987 ft | 235 kts | 323° |
| 2026-05-07 01:18 | 37.74411 | -122.23570 | 9700 ft | 245 kts | 348° |
| 2026-05-07 01:18 | 37.76082 | -122.23917 | 9220 ft | 242 kts | 354° |
| 2026-05-07 01:18 | 37.77772 | -122.24129 | 8730 ft | 241 kts | 356° |
| 2026-05-07 01:19 | 37.79418 | -122.24299 | 8248 ft | 239 kts | 356° |
| 2026-05-07 01:19 | 37.81074 | -122.24457 | 7773 ft | 236 kts | 356° |
| 2026-05-07 01:19 | 37.82687 | -122.24607 | 7407 ft | 230 kts | 356° |
| 2026-05-07 01:19 | 37.84276 | -122.24753 | 7032 ft | 225 kts | 356° |
| 2026-05-07 01:20 | 37.85817 | -122.24893 | 6668 ft | 221 kts | 356° |
| 2026-05-07 01:20 | 37.87348 | -122.25031 | 6296 ft | 218 kts | 356° |
| 2026-05-07 01:20 | 37.88860 | -122.25167 | 5917 ft | 215 kts | 356° |
| 2026-05-07 01:20 | 37.90355 | -122.25301 | 5539 ft | 213 kts | 356° |
| 2026-05-07 01:21 | 37.91818 | -122.25433 | 5169 ft | 211 kts | 355° |
| 2026-05-07 01:21 | 37.93266 | -122.25562 | 4798 ft | 210 kts | 355° |
| 2026-05-07 01:21 | 37.94736 | -122.25693 | 4422 ft | 208 kts | 355° |
| 2026-05-07 01:21 | 37.96165 | -122.25820 | 4058 ft | 207 kts | 355° |
| 2026-05-07 01:22 | 37.97622 | -122.25951 | 3683 ft | 207 kts | 355° |
| 2026-05-07 01:22 | 37.99053 | -122.26078 | 3309 ft | 206 kts | 354° |
| 2026-05-07 01:22 | 38.00495 | -122.26207 | 2942 ft | 205 kts | 354° |
| 2026-05-07 01:22 | 38.01908 | -122.26333 | 2691 ft | 205 kts | 354° |
| 2026-05-07 01:23 | 38.03343 | -122.26461 | 2506 ft | 206 kts | 354° |
| 2026-05-07 01:23 | 38.04816 | -122.26594 | 2490 ft | 219 kts | 354° |
| 2026-05-07 01:23 | 38.06318 | -122.26728 | 2475 ft | 210 kts | 354° |
| 2026-05-07 01:23 | 38.07745 | -122.26853 | 2468 ft | 199 kts | 354° |
| 2026-05-07 01:24 | 38.09106 | -122.26974 | 2467 ft | 190 kts | 354° |
| 2026-05-07 01:24 | 38.10413 | -122.27090 | 2470 ft | 184 kts | 354° |
| 2026-05-07 01:24 | 38.11684 | -122.27203 | 2280 ft | 189 kts | 353° |
| 2026-05-07 01:24 | 38.12947 | -122.27319 | 1944 ft | 196 kts | 353° |
| 2026-05-07 01:25 | 38.14355 | -122.27447 | 1589 ft | 202 kts | 353° |
| 2026-05-07 01:25 | 38.15665 | -122.27563 | 1487 ft | 192 kts | 353° |
| 2026-05-07 01:25 | 38.16962 | -122.27613 | 1447 ft | 174 kts | 1° |
| 2026-05-07 01:25 | 38.18060 | -122.27196 | 1437 ft | 151 kts | 26° |
| 2026-05-07 01:26 | 38.18768 | -122.26402 | 1356 ft | 123 kts | 46° |
| 2026-05-07 01:26 | 38.19294 | -122.25606 | 1164 ft | 115 kts | 45° |
| 2026-05-07 01:26 | 38.19906 | -122.24950 | 962 ft | 112 kts | 21° |
| 2026-05-07 01:26 | 38.20654 | -122.24787 | 827 ft | 111 kts | 354° |
| 2026-05-07 01:27 | 38.21337 | -122.25083 | 607 ft | 103 kts | 303° |
| 2026-05-07 01:27 | 38.21344 | -122.25899 | 385 ft | 91 kts | 256° |
| 2026-05-07 01:27 | 38.21180 | -122.26675 | 187 ft | 91 kts | 257° |
| 2026-05-07 01:27 | 38.21032 | -122.27445 | 37 ft | 83 kts | 258° |
| 2026-05-07 01:28 | 38.20919 | -122.28046 | 24 ft | 51 kts | 261° |
| 2026-05-07 01:28 | 38.20860 | -122.28374 | 20 ft | 25 kts | 257° |
| 2026-05-07 01:28 | 38.20853 | -122.28496 | 20 ft | 7 kts | 350° |
| 2026-05-07 01:28 | 38.20917 | -122.28468 | 20 ft | 12 kts | 21° |
| 2026-05-07 01:29 | 38.20969 | -122.28394 | 20 ft | 12 kts | 76° |
| 2026-05-07 01:29 | 38.20991 | -122.28275 | 21 ft | 15 kts | 77° |
| 2026-05-07 01:29 | 38.21015 | -122.28146 | 22 ft | 13 kts | 77° |
| 2026-05-07 01:29 | 38.21036 | -122.28033 | 24 ft | 13 kts | 77° |
| 2026-05-07 01:30 | 38.21059 | -122.27907 | 26 ft | 15 kts | 76° |
| 2026-05-07 01:30 | 38.21084 | -122.27774 | 27 ft | 14 kts | 77° |
| 2026-05-07 01:30 | 38.21107 | -122.27651 | 29 ft | 14 kts | 77° |
| 2026-05-07 01:30 | 38.21131 | -122.27519 | 31 ft | 15 kts | 78° |
| 2026-05-07 01:31 | 38.21154 | -122.27400 | 33 ft | 12 kts | 77° |
| 2026-05-07 01:31 | 38.21176 | -122.27282 | 35 ft | 13 kts | 76° |
| 2026-05-07 01:31 | 38.21214 | -122.27238 | 36 ft | 8 kts | 331° |
| 2026-05-07 01:31 | 38.21263 | -122.27239 | 35 ft | 7 kts | 66° |
| 2026-05-07 01:32 | 38.21289 | -122.27173 | 36 ft | 9 kts | 62° |
| 2026-05-07 01:32 | 38.21316 | -122.27107 | 37 ft | 7 kts | 62° |
| 2026-05-07 01:32 | 38.21314 | -122.27058 | 37 ft | 5 kts | 149° |
| 2026-05-07 01:32 | 38.21281 | -122.27038 | 37 ft | 4 kts | 153° |
| 2026-05-07 01:33 | 38.21287 | -122.27009 | 38 ft | 5 kts | 15° |
| 2026-05-07 01:33 | 38.21328 | -122.27026 | 38 ft | 7 kts | 333° |
| 2026-05-07 01:33 | 38.21359 | -122.27002 | 38 ft | 5 kts | 62° |
| 2026-05-07 01:33 | 38.21365 | -122.26962 | 38 ft | 5 kts | 126° |
| 2026-05-07 01:34 | 38.21327 | -122.26936 | 38 ft | 6 kts | 151° |
| 2026-05-07 01:34 | 38.21278 | -122.26902 | 38 ft | 7 kts | 138° |
| 2026-05-07 01:34 | 38.21263 | -122.26891 | 39 ft | 1 kts | 280° |
| 2026-05-07 01:34 | 38.21266 | -122.26895 | 39 ft | 0 kts | 332° |